Time;durP1;ratioP1;P1;durP2;ratioP2;P2;SDS_P1;SDS_P2;PMS_P1;PMS_P2;Temp;Humidity;BMP_temperature;BMP_pressure;BME280_temperature;BME280_humidity;BME280_pressure;Samples;Min_cycle;Max_cycle;Signal;HPM_P1;HPM_P2
2023/05/24 00:01:47;;;;;;;;;;;;;;;21.55;44.93;100575.23;103495;1285;62693;-83
2023/05/24 00:04:13;;;;;;;;;;;;;;;21.54;44.82;100569.56;103555;1285;62207;-84
2023/05/24 00:06:40;;;;;;;;;;;;;;;21.55;44.72;100570.61;103534;1292;62300;-82
2023/05/24 00:09:31;;;;;;;;;;;;;;;21.55;44.68;100569.55;103618;1288;62165;-83
2023/05/24 00:11:57;;;;;;;;;;;;;;;21.55;44.71;100570.08;102934;1291;63301;-83
2023/05/24 00:14:23;;;;;;;;;;;;;;;21.55;44.82;100565.61;102936;1291;62383;-84
2023/05/24 00:16:48;;;;;;;;;;;;;;;21.54;44.74;100565.27;102960;1297;62338;-84
2023/05/24 00:19:17;;;;;;;;;;;;;;;21.55;44.88;100564.55;102912;1292;62304;-83
2023/05/24 00:21:46;;;;;;;;;;;;;;;21.55;44.94;100558.27;103003;1291;62277;-84
2023/05/24 00:24:12;;;;;;;;;;;;;;;21.54;44.83;100554.36;102910;1291;72516;-83
2023/05/24 00:26:38;;;;;;;;;;;;;;;21.54;45.01;100555.98;102814;1291;62253;-82
2023/05/24 00:29:03;;;;;;;;;;;;;;;21.54;44.89;100554.91;102983;1292;62220;-83
2023/05/24 00:31:28;;;;;;;;;;;;;;;21.54;44.82;100557.10;102968;1291;62185;-83
2023/05/24 00:33:54;;;;;;;;;;;;;;;21.54;44.89;100560.09;102987;1291;62205;-83
2023/05/24 00:36:21;;;;;;;;;;;;;;;21.53;44.96;100558.36;102967;1296;72496;-83
2023/05/24 00:38:46;;;;;;;;;;;;;;;21.54;44.93;100558.71;103110;1291;63357;-82
2023/05/24 00:41:12;;;;;;;;;;;;;;;21.53;44.84;100559.44;103024;1291;62292;-83
2023/05/24 00:43:37;;;;;;;;;;;;;;;21.54;44.87;100564.42;102891;1291;62148;-82
2023/05/24 00:46:11;;;;;;;;;;;;;;;21.54;44.94;100565.52;102929;1291;62406;-82
2023/05/24 00:48:36;;;;;;;;;;;;;;;21.53;44.90;100564.63;103120;1296;75101;-83
2023/05/24 00:51:05;;;;;;;;;;;;;;;21.54;45.07;100565.15;103497;1285;63359;-83
2023/05/24 00:53:31;;;;;;;;;;;;;;;21.53;45.03;100564.81;103499;1285;62179;-82
2023/05/24 00:55:58;;;;;;;;;;;;;;;21.53;44.98;100565.35;103611;1288;62174;-83
2023/05/24 00:58:29;;;;;;;;;;;;;;;21.54;44.95;100564.09;103651;1285;62131;-83
2023/05/24 01:00:59;;;;;;;;;;;;;;;21.53;45.07;100559.45;103495;1285;62170;-82
2023/05/24 01:03:28;;;;;;;;;;;;;;;21.54;44.99;100561.04;103510;1285;62205;-83
2023/05/24 01:05:56;;;;;;;;;;;;;;;21.53;45.03;100561.96;103544;1285;73471;-82
2023/05/24 01:08:37;;;;;;;;;;;;;;;21.53;44.91;100559.81;103769;1285;74519;-82
2023/05/24 01:11:12;;;;;;;;;;;;;;;21.53;45.02;100555.70;103641;1285;62003;-83
2023/05/24 01:13:56;;;;;;;;;;;;;;;21.53;45.04;100557.66;103615;1288;62191;-83
2023/05/24 01:16:24;;;;;;;;;;;;;;;21.53;44.90;100554.80;103534;1284;73400;-83
2023/05/24 01:18:52;;;;;;;;;;;;;;;21.53;44.96;100556.26;103631;1286;76441;-82
2023/05/24 01:21:47;;;;;;;;;;;;;;;21.52;44.85;100556.80;103074;1286;62228;-84
2023/05/24 01:24:16;;;;;;;;;;;;;;;21.52;45.13;100559.84;103582;1285;62190;-83
2023/05/24 01:26:55;;;;;;;;;;;;;;;21.52;45.00;100556.44;103655;1284;73507;-83
2023/05/24 01:29:21;;;;;;;;;;;;;;;21.53;44.96;100558.58;103570;1288;75161;-82
2023/05/24 01:31:46;;;;;;;;;;;;;;;21.53;45.11;100558.77;103651;1285;62194;-83
2023/05/24 01:34:12;;;;;;;;;;;;;;;21.53;45.12;100558.40;103516;1291;62204;-84
2023/05/24 01:36:38;;;;;;;;;;;;;;;21.53;45.04;100555.38;103461;1286;62228;-83
2023/05/24 01:39:06;;;;;;;;;;;;;;;21.53;45.08;100559.48;103470;1286;63475;-82
2023/05/24 01:41:38;;;;;;;;;;;;;;;21.52;44.94;100558.98;103454;1285;62198;-83
2023/05/24 01:44:06;;;;;;;;;;;;;;;21.52;45.04;100560.75;103728;1284;63364;-84
2023/05/24 01:46:35;;;;;;;;;;;;;;;21.52;44.99;100561.81;103559;1289;73650;-81
2023/05/24 01:49:20;;;;;;;;;;;;;;;21.52;45.14;100563.11;103600;1285;76161;-83
2023/05/24 01:51:53;;;;;;;;;;;;;;;21.52;45.15;100570.23;103644;1285;62512;-83
2023/05/24 01:54:23;;;;;;;;;;;;;;;21.52;45.09;100571.13;103640;1285;62847;-83
2023/05/24 01:56:49;;;;;;;;;;;;;;;21.52;45.07;100570.08;103554;1284;72325;-83
2023/05/24 01:59:14;;;;;;;;;;;;;;;21.52;45.07;100566.87;103492;1291;62288;-83
2023/05/24 02:01:40;;;;;;;;;;;;;;;21.52;45.10;100567.60;103479;1285;63309;-82
2023/05/24 02:04:06;;;;;;;;;;;;;;;21.52;45.12;100567.60;103703;1286;62662;-83
2023/05/24 02:06:31;;;;;;;;;;;;;;;21.52;45.16;100568.14;103380;1285;62165;-82
2023/05/24 02:08:57;;;;;;;;;;;;;;;21.52;45.04;100565.11;103513;1285;63379;-83
2023/05/24 02:11:22;;;;;;;;;;;;;;;21.52;45.15;100564.94;103413;1285;76467;-83
2023/05/24 02:13:48;;;;;;;;;;;;;;;21.51;45.12;100564.44;103583;1286;62201;-83
2023/05/24 02:16:14;;;;;;;;;;;;;;;21.51;45.02;100563.19;103752;1285;62534;-84
2023/05/24 02:18:45;;;;;;;;;;;;;;;21.51;45.04;100564.08;103540;1288;62562;-84
2023/05/24 02:21:11;;;;;;;;;;;;;;;21.51;45.22;100563.55;103454;1285;75285;-83
2023/05/24 02:23:37;;;;;;;;;;;;;;;21.51;45.14;100564.25;103648;1285;63466;-83
2023/05/24 02:26:02;;;;;;;;;;;;;;;21.51;45.13;100567.85;103452;1285;62221;-83
2023/05/24 02:28:31;;;;;;;;;;;;;;;21.51;45.16;100568.00;103627;1288;62214;-83
2023/05/24 02:30:56;;;;;;;;;;;;;;;21.51;45.15;100565.54;103452;1285;62126;-83
2023/05/24 02:33:24;;;;;;;;;;;;;;;21.51;45.15;100564.48;103640;1285;62068;-83
2023/05/24 02:35:50;;;;;;;;;;;;;;;21.51;45.16;100567.52;103560;1286;62205;-83
2023/05/24 02:38:15;;;;;;;;;;;;;;;21.51;45.13;100567.52;103494;1285;62538;-83
2023/05/24 02:40:41;;;;;;;;;;;;;;;21.50;45.03;100565.21;103625;1288;62135;-82
2023/05/24 02:43:08;;;;;;;;;;;;;;;21.50;45.15;100570.03;103497;1286;63548;-84
2023/05/24 02:45:35;;;;;;;;;;;;;;;21.50;45.10;100568.06;103524;1285;63398;-82
2023/05/24 02:48:01;;;;;;;;;;;;;;;21.50;45.13;100570.39;103475;1285;62922;-84
2023/05/24 02:50:26;;;;;;;;;;;;;;;21.50;45.30;100571.30;103499;1291;62383;-83
2023/05/24 02:52:52;;;;;;;;;;;;;;;21.50;45.20;100573.45;103523;1285;62292;-82
2023/05/24 02:55:18;;;;;;;;;;;;;;;21.51;45.10;100577.18;103570;1285;62195;-83
2023/05/24 02:57:43;;;;;;;;;;;;;;;21.50;45.17;100579.89;103702;1285;62092;-82
2023/05/24 03:00:10;;;;;;;;;;;;;;;21.50;45.31;100579.34;103490;1286;62259;-83
2023/05/24 03:02:39;;;;;;;;;;;;;;;21.50;45.24;100581.34;103416;1285;62220;-83
2023/05/24 03:05:05;;;;;;;;;;;;;;;21.51;45.20;100584.69;103440;1287;62208;-83
2023/05/24 03:07:31;;;;;;;;;;;;;;;21.51;45.28;100584.88;103598;1285;62118;-83
2023/05/24 03:09:56;;;;;;;;;;;;;;;21.51;45.26;100585.42;103504;1290;62232;-83
2023/05/24 03:12:22;;;;;;;;;;;;;;;21.51;45.27;100581.66;103615;1285;62848;-82
2023/05/24 03:14:50;;;;;;;;;;;;;;;21.51;45.30;100584.70;103524;1285;62169;-83
2023/05/24 03:17:16;;;;;;;;;;;;;;;21.51;45.25;100585.39;103573;1288;62118;-83
2023/05/24 03:19:41;;;;;;;;;;;;;;;21.51;45.26;100586.30;103609;1285;63313;-82
2023/05/24 03:22:07;;;;;;;;;;;;;;;21.51;45.27;100587.35;103453;1291;62251;-82
2023/05/24 03:24:33;;;;;;;;;;;;;;;21.51;45.26;100587.93;103364;1285;62203;-83
2023/05/24 03:27:01;;;;;;;;;;;;;;;21.51;45.29;100588.97;103550;1291;62095;-83
2023/05/24 03:29:26;;;;;;;;;;;;;;;21.51;45.28;100590.20;103482;1285;63379;-84
2023/05/24 03:31:52;;;;;;;;;;;;;;;21.51;45.23;100590.75;103545;1288;62159;-83
2023/05/24 03:34:17;;;;;;;;;;;;;;;21.52;45.46;100591.09;103479;1285;62301;-83
2023/05/24 03:36:43;;;;;;;;;;;;;;;21.52;45.20;100591.80;103384;1289;63451;-83
2023/05/24 03:39:08;;;;;;;;;;;;;;;21.51;45.35;100591.45;103657;1285;62197;-83
2023/05/24 03:41:34;;;;;;;;;;;;;;;21.52;45.36;100592.50;103663;1285;62205;-83
2023/05/24 03:43:59;;;;;;;;;;;;;;;21.52;45.36;100592.88;103449;1286;62479;-83
2023/05/24 03:46:25;;;;;;;;;;;;;;;21.52;45.28;100593.75;103495;1291;63284;-82
2023/05/24 03:48:51;;;;;;;;;;;;;;;21.52;45.25;100596.41;103561;1285;63494;-84
2023/05/24 03:51:16;;;;;;;;;;;;;;;21.52;45.32;100599.64;103451;1287;63298;-83
2023/05/24 03:53:44;;;;;;;;;;;;;;;21.52;45.21;100601.27;103506;1285;62230;-84
2023/05/24 03:56:10;;;;;;;;;;;;;;;21.52;45.29;100602.30;103538;1286;72532;-83
2023/05/24 03:58:37;;;;;;;;;;;;;;;21.52;45.28;100600.56;103550;1285;62101;-83
2023/05/24 04:01:03;;;;;;;;;;;;;;;21.52;45.32;100601.07;103545;1288;62505;-83
2023/05/24 04:03:28;;;;;;;;;;;;;;;21.53;45.35;100602.63;103597;1285;63481;-83
2023/05/24 04:05:54;;;;;;;;;;;;;;;21.52;45.38;100600.67;103482;1291;62162;-83
2023/05/24 04:08:19;;;;;;;;;;;;;;;21.52;45.43;100601.74;103455;1286;62306;-83
2023/05/24 04:10:46;;;;;;;;;;;;;;;21.53;45.30;100604.23;103637;1285;62105;-82
2023/05/24 04:13:11;;;;;;;;;;;;;;;21.53;45.36;100604.40;103526;1287;62291;-83
2023/05/24 04:15:37;;;;;;;;;;;;;;;21.54;45.28;100608.08;103600;1285;62184;-83
2023/05/24 04:18:02;;;;;;;;;;;;;;;21.53;45.25;100606.89;103552;1291;63377;-82
2023/05/24 04:20:28;;;;;;;;;;;;;;;21.54;45.32;100606.67;103504;1285;62203;-83
2023/05/24 04:22:54;;;;;;;;;;;;;;;21.55;45.36;100607.86;103593;1291;62220;-83
2023/05/24 04:25:21;;;;;;;;;;;;;;;21.55;45.23;100611.04;103545;1285;62290;-84
2023/05/24 04:27:49;;;;;;;;;;;;;;;21.55;45.29;100611.23;103535;1290;62114;-84
2023/05/24 04:30:15;;;;;;;;;;;;;;;21.56;45.40;100609.91;103520;1286;62192;-82
2023/05/24 04:32:43;;;;;;;;;;;;;;;21.57;45.35;100612.91;103546;1286;62259;-83
2023/05/24 04:35:09;;;;;;;;;;;;;;;21.57;45.38;100613.61;103567;1291;62218;-83
2023/05/24 04:37:34;;;;;;;;;;;;;;;21.58;45.47;100614.80;103650;1291;63483;-83
2023/05/24 04:40:00;;;;;;;;;;;;;;;21.58;45.43;100611.55;103519;1285;62212;-83
2023/05/24 04:42:30;;;;;;;;;;;;;;;21.59;45.45;100610.96;103654;1288;62191;-82
2023/05/24 04:44:56;;;;;;;;;;;;;;;21.59;45.56;100611.45;103530;1285;62284;-83
2023/05/24 04:47:22;;;;;;;;;;;;;;;21.61;45.44;100614.20;103625;1285;62602;-83
2023/05/24 04:49:48;;;;;;;;;;;;;;;21.62;45.54;100616.86;103583;1286;62203;-82
2023/05/24 04:52:15;;;;;;;;;;;;;;;21.63;45.61;100620.86;103556;1291;63398;-83
2023/05/24 04:54:40;;;;;;;;;;;;;;;21.64;45.56;100619.89;103680;1285;62277;-83
2023/05/24 04:57:05;;;;;;;;;;;;;;;21.65;45.63;100623.19;103770;1291;62140;-83
2023/05/24 04:59:31;;;;;;;;;;;;;;;21.67;45.71;100624.88;104395;1286;62195;-82
2023/05/24 05:01:56;;;;;;;;;;;;;;;21.67;45.68;100624.11;104502;1285;76026;-83
2023/05/24 05:04:22;;;;;;;;;;;;;;;21.69;45.64;100625.79;104223;1285;62666;-83
2023/05/24 05:06:47;;;;;;;;;;;;;;;21.70;45.76;100629.10;103851;1285;62534;-83
2023/05/24 05:09:14;;;;;;;;;;;;;;;21.72;45.81;100631.45;103734;1291;62479;-82
2023/05/24 05:11:40;;;;;;;;;;;;;;;21.74;45.74;100632.19;103651;1289;62114;-82
2023/05/24 05:14:08;;;;;;;;;;;;;;;21.75;45.97;100633.19;103494;1291;62195;-82
2023/05/24 05:16:34;;;;;;;;;;;;;;;21.77;45.79;100633.44;103614;1285;62364;-83
2023/05/24 05:19:00;;;;;;;;;;;;;;;21.78;45.89;100634.80;103571;1286;63247;-84
2023/05/24 05:21:25;;;;;;;;;;;;;;;21.79;45.81;100635.98;103927;1290;62273;-83
2023/05/24 05:23:51;;;;;;;;;;;;;;;21.80;45.79;100638.56;104001;1285;62258;-83
2023/05/24 05:26:17;;;;;;;;;;;;;;;21.80;45.76;100641.02;103653;1285;62149;-83
2023/05/24 05:28:43;;;;;;;;;;;;;;;21.82;45.94;100642.36;104654;1291;62134;-82
2023/05/24 05:31:08;;;;;;;;;;;;;;;21.83;45.86;100648.92;103753;1285;62140;-82
2023/05/24 05:33:34;;;;;;;;;;;;;;;21.84;45.95;100650.61;103582;1285;62243;-83
2023/05/24 05:35:59;;;;;;;;;;;;;;;21.85;45.82;100655.23;103630;1285;62539;-83
2023/05/24 05:38:27;;;;;;;;;;;;;;;21.85;45.89;100653.23;103583;1285;62221;-83
2023/05/24 05:40:52;;;;;;;;;;;;;;;21.85;45.84;100655.02;103792;1285;62494;-82
2023/05/24 05:43:18;;;;;;;;;;;;;;;21.86;45.82;100655.30;103702;1291;62275;-83
2023/05/24 05:45:44;;;;;;;;;;;;;;;21.85;45.87;100654.64;103575;1291;62925;-83
2023/05/24 05:48:09;;;;;;;;;;;;;;;21.85;45.83;100655.16;103646;1285;63371;-82
2023/05/24 05:50:35;;;;;;;;;;;;;;;21.86;45.81;100656.57;103683;1291;62253;-82
2023/05/24 05:53:02;;;;;;;;;;;;;;;21.86;45.94;100657.30;103582;1285;62178;-84
2023/05/24 05:55:28;;;;;;;;;;;;;;;21.86;45.73;100657.09;103719;1285;72559;-83
2023/05/24 05:57:53;;;;;;;;;;;;;;;21.86;45.79;100657.26;103910;1286;62201;-82
2023/05/24 06:00:20;;;;;;;;;;;;;;;21.86;45.80;100663.69;103736;1285;63293;-83
2023/05/24 06:02:46;;;;;;;;;;;;;;;21.87;45.81;100663.48;103676;1285;62264;-83
2023/05/24 06:05:11;;;;;;;;;;;;;;;21.88;45.87;100665.02;103613;1285;62345;-82
2023/05/24 06:08:00;;;;;;;;;;;;;;;21.87;45.87;100662.88;103721;1284;62211;-82
2023/05/24 06:10:26;;;;;;;;;;;;;;;21.89;45.85;100667.09;103326;1297;62163;-82
2023/05/24 06:12:52;;;;;;;;;;;;;;;21.89;45.81;100668.49;103407;1291;62387;-82
2023/05/24 06:15:21;;;;;;;;;;;;;;;21.89;45.81;100670.08;103385;1296;62309;-82
2023/05/24 06:17:47;;;;;;;;;;;;;;;21.90;45.64;100667.87;103310;1291;76396;-83
2023/05/24 06:20:15;;;;;;;;;;;;;;;21.91;45.78;100671.95;103026;1296;63481;-83
2023/05/24 06:22:41;;;;;;;;;;;;;;;21.91;45.67;100674.77;103530;1292;62268;-82
2023/05/24 06:25:07;;;;;;;;;;;;;;;21.91;45.67;100674.05;103112;1291;62102;-83
2023/05/24 06:27:32;;;;;;;;;;;;;;;21.92;45.76;100671.34;103171;1291;62277;-82
2023/05/24 06:29:58;;;;;;;;;;;;;;;21.92;45.76;100674.68;103055;1291;62186;-83
2023/05/24 06:32:23;;;;;;;;;;;;;;;21.92;45.73;100672.36;103262;1293;62232;-82
2023/05/24 06:34:49;;;;;;;;;;;;;;;21.93;45.78;100672.14;103057;1291;62295;-82
2023/05/24 06:37:17;;;;;;;;;;;;;;;21.93;45.64;100671.07;103114;1295;62361;-82
2023/05/24 06:39:42;;;;;;;;;;;;;;;21.92;45.70;100670.36;103169;1291;76503;-82
2023/05/24 06:42:08;;;;;;;;;;;;;;;21.93;45.64;100669.62;103045;1292;62208;-82
2023/05/24 06:44:35;;;;;;;;;;;;;;;21.92;45.67;100671.26;103068;1292;62403;-82
2023/05/24 06:47:00;;;;;;;;;;;;;;;21.93;45.72;100673.22;103122;1285;63299;-83
2023/05/24 06:49:27;;;;;;;;;;;;;;;21.92;45.59;100673.21;103614;1289;63164;-82
2023/05/24 06:51:54;;;;;;;;;;;;;;;21.93;45.66;100671.27;103910;1288;62279;-83
2023/05/24 06:54:34;;;;;;;;;;;;;;;21.95;45.68;100671.64;103120;1289;599348;-83
2023/05/24 06:57:00;;;;;;;;;;;;;;;21.93;45.71;100671.76;102979;1296;60438;-82
2023/05/24 06:59:26;;;;;;;;;;;;;;;21.93;45.75;100670.70;103160;1296;59541;-83
2023/05/24 07:01:56;;;;;;;;;;;;;;;21.93;45.82;100666.35;103107;1298;60180;-83
2023/05/24 07:04:24;;;;;;;;;;;;;;;21.93;45.78;100668.72;103323;1291;73466;-83
2023/05/24 07:06:50;;;;;;;;;;;;;;;21.93;45.81;100670.16;103394;1294;71861;-83
2023/05/24 07:09:17;;;;;;;;;;;;;;;21.93;45.70;100669.63;103162;1290;625408;-83
2023/05/24 07:11:43;;;;;;;;;;;;;;;21.93;45.69;100669.80;103509;1291;59331;-82
2023/05/24 07:14:08;;;;;;;;;;;;;;;21.93;45.80;100671.02;103403;1289;59412;-83
2023/05/24 07:16:36;;;;;;;;;;;;;;;21.93;45.87;100668.33;103586;1292;59387;-83
2023/05/24 07:19:01;;;;;;;;;;;;;;;21.93;45.87;100671.05;103435;1295;59790;-82
2023/05/24 07:21:27;;;;;;;;;;;;;;;21.93;45.79;100669.58;103347;1295;59915;-83
2023/05/24 07:23:53;;;;;;;;;;;;;;;21.93;45.73;100670.48;103655;1294;59762;-82
2023/05/24 07:26:19;;;;;;;;;;;;;;;21.93;45.66;100667.42;103841;1289;60629;-83
2023/05/24 07:28:46;;;;;;;;;;;;;;;21.93;45.70;100671.73;103667;1295;59845;-83
2023/05/24 07:31:12;;;;;;;;;;;;;;;21.93;45.87;100674.58;103659;1295;60766;-82
2023/05/24 07:33:37;;;;;;;;;;;;;;;21.94;45.77;100675.27;103584;1295;59864;-82
2023/05/24 07:36:07;;;;;;;;;;;;;;;21.95;45.90;100673.08;103452;1291;59858;-82
2023/05/24 07:39:04;;;;;;;;;;;;;;;21.95;45.78;100672.87;103792;1289;73834;-82
2023/05/24 07:41:44;;;;;;;;;;;;;;;21.95;45.79;100674.50;102884;1298;59849;-83
2023/05/24 07:44:10;;;;;;;;;;;;;;;21.95;45.88;100671.23;103276;1301;60988;-82
2023/05/24 07:46:38;;;;;;;;;;;;;;;21.96;45.67;100674.42;102964;1301;59852;-82
2023/05/24 07:49:03;;;;;;;;;;;;;;;21.96;45.71;100674.08;102969;1298;59961;-82
2023/05/24 07:51:31;;;;;;;;;;;;;;;21.97;45.79;100675.80;102727;1301;59685;-83
2023/05/24 07:53:56;;;;;;;;;;;;;;;21.96;45.90;100679.24;102900;1299;60505;-83
2023/05/24 07:56:22;;;;;;;;;;;;;;;21.97;45.83;100681.71;102862;1298;59917;-82
2023/05/24 07:58:50;;;;;;;;;;;;;;;21.97;45.80;100678.81;102880;1299;59864;-83
2023/05/24 08:01:17;;;;;;;;;;;;;;;21.97;45.83;100678.27;103229;1301;60174;-83
2023/05/24 08:03:42;;;;;;;;;;;;;;;21.98;45.75;100676.10;103081;1302;60444;-83
2023/05/24 08:06:08;;;;;;;;;;;;;;;21.98;45.76;100679.84;102978;1300;60959;-83
2023/05/24 08:08:35;;;;;;;;;;;;;;;21.98;45.70;100678.60;103144;1304;59736;-83
2023/05/24 08:11:00;;;;;;;;;;;;;;;21.97;45.85;100677.21;102777;1306;60003;-83
2023/05/24 08:13:27;;;;;;;;;;;;;;;21.97;45.73;100677.21;102891;1303;59807;-83
2023/05/24 08:16:18;;;;;;;;;;;;;;;21.97;45.72;100675.09;102904;1303;60800;-82
2023/05/24 08:18:44;;;;;;;;;;;;;;;21.97;45.69;100671.68;102960;1305;73069;-81
2023/05/24 08:21:10;;;;;;;;;;;;;;;21.97;45.89;100672.74;103114;1299;60133;-81
2023/05/24 08:23:36;;;;;;;;;;;;;;;21.97;45.71;100669.70;103138;1301;61419;-81
2023/05/24 08:26:02;;;;;;;;;;;;;;;21.97;45.81;100672.20;103241;1304;59842;-82
2023/05/24 08:28:29;;;;;;;;;;;;;;;21.97;45.82;100674.16;102979;1304;59781;-81
2023/05/24 08:30:55;;;;;;;;;;;;;;;21.97;45.79;100672.39;102665;1304;59906;-81
2023/05/24 08:33:21;;;;;;;;;;;;;;;21.97;45.90;100677.27;103066;1304;59681;-81
2023/05/24 08:35:48;;;;;;;;;;;;;;;21.96;45.80;100681.58;102852;1306;59756;-82
2023/05/24 08:38:13;;;;;;;;;;;;;;;21.95;45.84;100676.96;102977;1301;59803;-81
2023/05/24 08:40:39;;;;;;;;;;;;;;;21.95;45.97;100677.36;102948;1304;59746;-81
2023/05/24 08:43:10;;;;;;;;;;;;;;;21.95;45.84;100675.57;103095;1300;59951;-81
2023/05/24 08:45:36;;;;;;;;;;;;;;;21.94;45.85;100674.37;103075;1298;60251;-81
2023/05/24 08:48:01;;;;;;;;;;;;;;;21.94;45.83;100672.76;103222;1301;60291;-82
2023/05/24 08:50:27;;;;;;;;;;;;;;;21.94;45.79;100675.83;103067;1304;60475;-82
2023/05/24 08:52:52;;;;;;;;;;;;;;;21.94;45.83;100675.45;102970;1299;60147;-82
2023/05/24 08:55:18;;;;;;;;;;;;;;;21.93;45.84;100672.46;103089;1293;60815;-81
2023/05/24 08:57:43;;;;;;;;;;;;;;;21.93;45.84;100672.31;103700;1289;59739;-81
2023/05/24 09:00:10;;;;;;;;;;;;;;;21.93;45.85;100672.29;103643;1292;60133;-81
2023/05/24 09:02:39;;;;;;;;;;;;;;;21.92;45.93;100669.62;103968;1289;59761;-81
2023/05/24 09:05:07;;;;;;;;;;;;;;;21.93;45.76;100670.51;103989;1293;61200;-81
2023/05/24 09:07:32;;;;;;;;;;;;;;;21.93;45.92;100674.24;103769;1299;61582;-81
2023/05/24 09:10:06;;;;;;;;;;;;;;;21.93;45.85;100669.58;103745;1295;59710;-81
2023/05/24 09:12:32;;;;;;;;;;;;;;;21.95;45.82;100670.95;103888;1291;72568;-82
2023/05/24 09:14:58;;;;;;;;;;;;;;;21.95;45.80;100672.36;103798;1289;61059;-81
2023/05/24 09:17:25;;;;;;;;;;;;;;;21.95;45.92;100668.76;103713;1289;59749;-82
2023/05/24 09:19:52;;;;;;;;;;;;;;;21.95;45.81;100671.25;103354;1297;59717;-82
2023/05/24 09:22:19;;;;;;;;;;;;;;;21.96;45.86;100668.69;103631;1294;59788;-83
2023/05/24 09:24:49;;;;;;;;;;;;;;;21.96;45.90;100662.41;103315;1295;59937;-82
2023/05/24 09:27:16;;;;;;;;;;;;;;;21.96;45.88;100663.82;103587;1289;60001;-83
2023/05/24 09:29:42;;;;;;;;;;;;;;;21.96;45.83;100668.52;103950;1292;73536;-82
2023/05/24 09:32:08;;;;;;;;;;;;;;;21.96;45.87;100667.58;103775;1293;74105;-82
2023/05/24 09:34:40;;;;;;;;;;;;;;;21.96;45.80;100661.89;103714;1287;59767;-83
2023/05/24 09:37:08;;;;;;;;;;;;;;;21.97;45.87;100667.00;103982;1289;60982;-83
2023/05/24 09:39:33;;;;;;;;;;;;;;;21.98;45.90;100662.27;103457;1289;73921;-83
2023/05/24 09:41:59;;;;;;;;;;;;;;;21.98;46.09;100660.10;103606;1289;60070;-82
2023/05/24 09:44:26;;;;;;;;;;;;;;;21.99;46.21;100658.63;103820;1292;60929;-83
2023/05/24 09:46:52;;;;;;;;;;;;;;;21.99;46.31;100656.83;103587;1290;59825;-82
2023/05/24 09:49:20;;;;;;;;;;;;;;;21.99;46.34;100655.59;103475;1289;60516;-83
2023/05/24 09:51:46;;;;;;;;;;;;;;;21.98;46.33;100656.88;103932;1289;59608;-82
2023/05/24 09:54:11;;;;;;;;;;;;;;;21.98;46.29;100658.48;104015;1286;59775;-83
2023/05/24 09:56:37;;;;;;;;;;;;;;;21.98;46.39;100653.66;103855;1286;60136;-83
2023/05/24 09:59:09;;;;;;;;;;;;;;;21.98;46.26;100656.55;103637;1292;60010;-83
2023/05/24 10:01:35;;;;;;;;;;;;;;;21.98;46.28;100651.70;103818;1292;73819;-82
2023/05/24 10:04:01;;;;;;;;;;;;;;;21.98;46.33;100652.61;103675;1290;59916;-83
2023/05/24 10:06:31;;;;;;;;;;;;;;;21.97;46.25;100646.91;103948;1286;59868;-82
2023/05/24 10:08:57;;;;;;;;;;;;;;;21.97;46.18;100644.79;103580;1289;73106;-83
2023/05/24 10:11:23;;;;;;;;;;;;;;;21.96;46.24;100646.61;103711;1292;59765;-82
2023/05/24 10:13:50;;;;;;;;;;;;;;;21.96;46.20;100640.55;104033;1287;59576;-82
2023/05/24 10:16:16;;;;;;;;;;;;;;;21.95;46.27;100638.26;103954;1290;61422;-82
2023/05/24 10:18:41;;;;;;;;;;;;;;;21.96;46.21;100634.48;104052;1287;59768;-82
2023/05/24 10:21:08;;;;;;;;;;;;;;;21.96;46.29;100633.23;103888;1287;59692;-82
2023/05/24 10:23:35;;;;;;;;;;;;;;;21.96;46.29;100631.81;103950;1287;60023;-82
2023/05/24 10:26:07;;;;;;;;;;;;;;;21.96;46.13;100626.95;103772;1289;59784;-83
2023/05/24 10:28:47;;;;;;;;;;;;;;;21.96;46.21;100626.06;103876;1288;75288;-83
2023/05/24 10:31:17;;;;;;;;;;;;;;;21.96;46.22;100626.44;103767;1288;72824;-83
2023/05/24 10:33:43;;;;;;;;;;;;;;;21.96;46.29;100624.27;103599;1286;59697;-80
2023/05/24 10:36:10;;;;;;;;;;;;;;;21.96;46.23;100621.72;103836;1286;59681;-82
2023/05/24 10:38:43;;;;;;;;;;;;;;;21.96;46.13;100623.16;104184;1286;72566;-83
2023/05/24 10:41:09;;;;;;;;;;;;;;;21.96;46.34;100627.30;104523;1286;73660;-82
2023/05/24 10:43:35;;;;;;;;;;;;;;;21.97;46.14;100621.33;104674;1286;59723;-82
2023/05/24 10:46:01;;;;;;;;;;;;;;;21.96;46.19;100618.67;104415;1287;59870;-82
2023/05/24 10:48:27;;;;;;;;;;;;;;;21.97;46.22;100625.39;104088;1289;59725;-82
2023/05/24 10:50:52;;;;;;;;;;;;;;;21.98;46.24;100616.60;103914;1288;59796;-82
2023/05/24 10:53:21;;;;;;;;;;;;;;;21.98;46.23;100621.76;103643;1289;59800;-82
2023/05/24 10:55:52;;;;;;;;;;;;;;;21.98;46.27;100617.11;104031;1289;59790;-81
2023/05/24 10:58:19;;;;;;;;;;;;;;;21.99;46.16;100620.95;103860;1286;73623;-83
2023/05/24 11:00:45;;;;;;;;;;;;;;;21.99;46.27;100614.34;103994;1286;74805;-81
2023/05/24 11:03:11;;;;;;;;;;;;;;;21.99;46.30;100613.08;103944;1292;60452;-82
2023/05/24 11:05:46;;;;;;;;;;;;;;;21.99;46.21;100614.86;103739;1292;60879;-82
2023/05/24 11:08:12;;;;;;;;;;;;;;;21.99;46.21;100614.17;103768;1286;72502;-82
2023/05/24 11:10:37;;;;;;;;;;;;;;;21.99;46.10;100612.39;103662;1292;60598;-84
2023/05/24 11:13:03;;;;;;;;;;;;;;;21.99;46.15;100608.60;103517;1286;60613;-83
2023/05/24 11:15:28;;;;;;;;;;;;;;;21.99;46.05;100605.38;103796;1286;61718;-84
2023/05/24 11:18:12;;;;;;;;;;;;;;;21.99;46.17;100602.67;103796;1286;61244;-83
2023/05/24 11:20:39;;;;;;;;;;;;;;;21.99;46.13;100602.83;103760;1286;73521;-84
2023/05/24 11:23:08;;;;;;;;;;;;;;;21.99;46.17;100602.35;103816;1290;60587;-83
2023/05/24 11:25:36;;;;;;;;;;;;;;;21.98;46.19;100596.85;103548;1292;60457;-82
2023/05/24 11:28:01;;;;;;;;;;;;;;;21.98;46.16;100595.58;103473;1286;60520;-83
2023/05/24 11:30:27;;;;;;;;;;;;;;;21.98;46.20;100593.30;103735;1289;60593;-83
2023/05/24 11:32:52;;;;;;;;;;;;;;;21.98;46.11;100593.11;103683;1286;60549;-83
2023/05/24 11:35:18;;;;;;;;;;;;;;;21.98;46.23;100592.55;103744;1286;61689;-82
2023/05/24 11:37:44;;;;;;;;;;;;;;;21.97;46.21;100590.11;104042;1289;60502;-82
2023/05/24 11:40:10;;;;;;;;;;;;;;;21.98;46.13;100581.84;103685;1287;61692;-83
2023/05/24 11:42:38;;;;;;;;;;;;;;;21.98;46.14;100583.63;103758;1286;60580;-83
2023/05/24 11:45:08;;;;;;;;;;;;;;;21.97;46.18;100581.88;103494;1286;74385;-84
2023/05/24 11:47:34;;;;;;;;;;;;;;;21.97;46.17;100577.03;103634;1286;61021;-83
2023/05/24 11:50:00;;;;;;;;;;;;;;;21.97;46.12;100573.83;103895;1287;60981;-84
2023/05/24 11:52:25;;;;;;;;;;;;;;;21.97;46.22;100566.50;103698;1289;60574;-83
2023/05/24 11:54:53;;;;;;;;;;;;;;;21.97;46.19;100567.38;103682;1286;60552;-83
2023/05/24 11:57:21;;;;;;;;;;;;;;;21.97;45.99;100564.35;103716;1287;61695;-83
2023/05/24 11:59:47;;;;;;;;;;;;;;;21.96;46.13;100565.45;103583;1286;60505;-83
2023/05/24 12:02:13;;;;;;;;;;;;;;;21.96;46.08;100562.77;103620;1289;60572;-83
2023/05/24 12:04:38;;;;;;;;;;;;;;;21.97;46.12;100555.41;103537;1286;60572;-83
2023/05/24 12:07:09;;;;;;;;;;;;;;;21.96;46.06;100555.61;103746;1286;60936;-84
2023/05/24 12:09:35;;;;;;;;;;;;;;;21.97;46.00;100551.28;103680;1289;60972;-83
2023/05/24 12:12:01;;;;;;;;;;;;;;;21.96;46.10;100551.48;103856;1293;60510;-83
2023/05/24 12:14:29;;;;;;;;;;;;;;;21.97;46.05;100551.05;103672;1289;60554;-83
2023/05/24 12:16:55;;;;;;;;;;;;;;;21.97;46.10;100548.91;103478;1289;60559;-83
2023/05/24 12:19:24;;;;;;;;;;;;;;;21.98;46.10;100541.70;103575;1292;61292;-83
2023/05/24 12:21:50;;;;;;;;;;;;;;;21.98;46.03;100537.23;103683;1289;73448;-83
2023/05/24 12:24:18;;;;;;;;;;;;;;;21.98;46.09;100537.55;103521;1291;60985;-83
2023/05/24 12:26:45;;;;;;;;;;;;;;;21.97;45.98;100535.09;103964;1290;60987;-83